Weather at Rockford Bay Heliport

Public forecast

Using degrees Fahrenheit for public forecast. Weather courtesy of forecast.io.

Closest aviation weather report (METAR) to Rockford Bay Heliport

Closest report is Coeur D'Alene - Pappy Boyington Field, 16.3 nm (30.2 km) N. Retrieved 2021/07/24 21:56 UTC (32 minutes ago):

KCOE 242156Z AUTO 26006KT 10SM CLR 31/03 A3008 RMK AO2 SLP185 T03110028

Closest aviation forecast (TAF) to Rockford Bay Heliport

Closest forecast is Coeur D'Alene - Pappy Boyington Field, 16.3 nm (30.2 km) N. Retrieved 2021/07/24 18:57 UTC (4 hours ago):

TAF KCOE 241755Z 2418/2518 09003KT P6SM SKC FM242100 23006KT P6SM SKC FM250200 15005KT P6SM SKC FM251745 20006KT P6SM SKC